Time;durP1;ratioP1;P1;durP2;ratioP2;P2;SDS_P1;SDS_P2;PMS_P1;PMS_P2;Temp;Humidity;BMP_temperature;BMP_pressure;BME280_temperature;BME280_humidity;BME280_pressure;Samples;Min_cycle;Max_cycle;Signal;HPM_P1;HPM_P2
2023/03/03 00:01:19;;;;;;;74.50;70.10;;;;;;;-1.14;90.19;102569.78;4972854;28;20074;-77
2023/03/03 00:03:45;;;;;;;103.57;97.27;;;;;;;-1.05;89.25;102579.38;4952807;28;20080;-77
2023/03/03 00:06:12;;;;;;;98.53;92.53;;;;;;;-1.00;89.50;102577.16;4972084;28;20488;-77
2023/03/03 00:08:39;;;;;;;96.17;90.23;;;;;;;-0.96;89.54;102567.97;4992913;28;20069;-77
2023/03/03 00:11:06;;;;;;;96.83;90.93;;;;;;;-0.86;89.28;102574.00;4991048;28;20153;-77
2023/03/03 00:13:48;;;;;;;87.33;82.13;;;;;;;-0.71;89.43;102576.94;5000417;28;20088;-77
2023/03/03 00:16:16;;;;;;;82.33;77.43;;;;;;;-0.68;89.85;102574.00;4972333;28;20149;-78
2023/03/03 00:18:44;;;;;;;81.93;77.03;;;;;;;-0.56;90.33;102579.84;4992058;28;20110;-77
2023/03/03 00:21:20;;;;;;;83.23;78.20;;;;;;;-0.51;89.84;102569.72;4972512;28;20523;-77
2023/03/03 00:23:45;;;;;;;73.93;69.60;;;;;;;-0.38;89.04;102572.78;4988138;28;20071;-77
2023/03/03 00:26:40;;;;;;;71.87;67.63;;;;;;;-0.43;89.97;102577.66;4971763;28;20094;-78
2023/03/03 00:29:24;;;;;;;64.07;60.33;;;;;;;-0.36;90.40;102570.81;4973875;28;20093;-77
2023/03/03 00:31:50;;;;;;;67.63;63.63;;;;;;;-0.34;90.42;102571.50;4974653;28;20634;-76
2023/03/03 00:34:15;;;;;;;63.57;59.87;;;;;;;-0.30;89.85;102574.66;4953982;28;20095;-79
2023/03/03 00:36:41;;;;;;;68.57;64.47;;;;;;;-0.21;90.04;102578.16;4969272;28;20101;-76
2023/03/03 00:39:28;;;;;;;63.60;59.80;;;;;;;-0.17;90.09;102574.25;4976253;28;20147;-76
2023/03/03 00:41:54;;;;;;;63.23;59.53;;;;;;;-0.11;90.05;102578.91;4972946;28;20089;-75
2023/03/03 00:44:41;;;;;;;67.47;63.47;;;;;;;-0.05;89.76;102578.28;4984951;28;20147;-76
2023/03/03 00:47:29;;;;;;;64.53;60.70;;;;;;;-0.01;89.75;102569.09;4983611;28;20101;-78
2023/03/03 00:50:04;;;;;;;62.13;58.43;;;;;;;0.04;90.16;102576.53;4969208;28;20541;-76
2023/03/03 00:52:34;;;;;;;64.50;60.70;;;;;;;0.03;89.70;102580.16;4974639;28;20104;-76
2023/03/03 00:55:00;;;;;;;67.25;63.25;;;;;;;0.02;90.34;102571.44;4990996;28;20184;-77
2023/03/03 00:57:25;;;;;;;68.25;64.18;;;;;;;0.06;90.10;102574.56;4955970;28;20161;-77
2023/03/03 00:59:52;;;;;;;63.80;60.03;;;;;;;0.03;90.33;102570.44;4975367;28;20093;-75
2023/03/03 01:02:18;;;;;;;60.83;57.23;;;;;;;0.04;90.25;102572.09;4970291;28;20153;-76
2023/03/03 01:04:49;;;;;;;63.15;59.25;;;;;;;0.08;90.27;102568.16;4971193;28;20148;-76
2023/03/03 01:07:15;;;;;;;;;;;;;;;0.11;90.44;102565.22;4973991;28;20117;-76
2023/03/03 01:09:41;;;;;;;37.42;35.28;;;;;;;0.11;90.44;102572.28;4988122;28;20552;-77
2023/03/03 01:12:07;;;;;;;37.15;35.05;;;;;;;0.12;90.17;102563.41;4954571;28;20078;-77
2023/03/03 01:14:34;;;;;;;25.63;24.25;;;;;;;0.17;90.23;102567.22;4956767;28;20177;-75
2023/03/03 01:17:00;;;;;;;25.25;23.90;;;;;;;0.17;90.58;102572.50;4988958;28;20095;-76
2023/03/03 01:19:25;;;;;;;27.48;25.98;;;;;;;0.20;90.25;102564.28;4984222;28;20329;-77
2023/03/03 01:21:51;;;;;;;37.72;35.38;;;;;;;0.24;90.48;102562.97;4991416;28;20090;-76
2023/03/03 01:24:17;;;;;;;265.97;175.47;;;;;;;0.23;90.28;102563.97;4957174;28;20659;-76
2023/03/03 01:26:42;;;;;;;;;;;;;;;0.23;90.02;102556.06;4984571;28;20050;-80
2023/03/03 01:29:08;;;;;;;;;;;;;;;0.30;90.29;102550.16;4957498;28;19920;-76
2023/03/03 01:31:34;;;;;;;;;;;;;;;0.32;90.12;102553.47;4987713;28;19914;-76
2023/03/03 01:34:00;;;;;;;;;;;;;;;0.34;90.17;102547.06;4957239;28;19953;-76
2023/03/03 01:36:27;;;;;;;;;;;;;;;0.28;90.49;102546.88;4954818;28;20884;-76
2023/03/03 01:38:52;;;;;;;;;;;;;;;0.39;90.70;102534.22;4974506;28;19940;-77
2023/03/03 01:41:19;;;;;;;;;;;;;;;0.34;90.37;102538.31;4953678;28;19921;-75
2023/03/03 01:43:46;;;;;;;;;;;;;;;0.26;90.66;102539.94;4959092;28;21188;-77
2023/03/03 01:46:28;;;;;;;;;;;;;;;0.20;90.49;102535.31;4977790;28;20372;-76
2023/03/03 01:49:01;;;;;;;;;;;;;;;0.31;90.36;102536.00;4985937;28;19925;-77
2023/03/03 01:51:46;;;;;;;;;;;;;;;0.21;90.62;102536.97;4973008;28;19918;-77
2023/03/03 01:54:23;;;;;;;;;;;;;;;0.20;90.31;102535.31;4958909;28;19918;-76
2023/03/03 01:56:49;;;;;;;;;;;;;;;0.09;90.69;102547.91;5003997;28;19910;-76
2023/03/03 01:59:17;;;;;;;;;;;;;;;0.09;90.53;102538.22;4973753;28;19973;-76
2023/03/03 02:01:46;;;;;;;;;;;;;;;0.11;90.86;102538.03;4987379;28;20137;-79
2023/03/03 02:04:12;;;;;;;;;;;;;;;0.08;90.81;102522.56;4957734;28;19913;-76
2023/03/03 02:06:40;;;;;;;;;;;;;;;0.02;90.93;102524.00;4986327;28;19914;-77
2023/03/03 02:09:20;;;;;;;;;;;;;;;0.04;90.61;102526.47;4957814;28;19918;-78
2023/03/03 02:11:45;;;;;;;;;;;;;;;0.01;90.73;102532.06;4984351;28;19909;-77
2023/03/03 02:14:11;;;;;;;;;;;;;;;0.00;90.70;102533.88;4958515;28;19964;-76
2023/03/03 02:16:42;;;;;;;;;;;;;;;-0.03;90.85;102535.00;4984546;28;19918;-77
2023/03/03 02:19:12;;;;;;;;;;;;;;;-0.01;90.66;102527.75;4999999;28;20340;-77
2023/03/03 02:21:37;;;;;;;;;;;;;;;-0.04;90.89;102527.25;4985908;28;19965;-76
2023/03/03 02:24:03;;;;;;;;;;;;;;;-0.10;91.06;102528.72;4954016;28;19915;-77
2023/03/03 02:26:31;;;;;;;;;;;;;;;-0.07;91.10;102522.28;4960583;28;19965;-76
2023/03/03 02:29:02;;;;;;;;;;;;;;;-0.11;90.95;102531.50;4968372;28;19918;-77
2023/03/03 02:31:29;;;;;;;;;;;;;;;-0.15;90.86;102522.25;4986158;28;19919;-76
2023/03/03 02:33:56;;;;;;;642.47;254.95;;;;;;;-0.06;90.75;102523.97;4955475;28;20407;-77
2023/03/03 02:36:28;;;;;;;441.40;223.53;;;;;;;-0.16;90.77;102533.78;4952437;28;20100;-77
2023/03/03 02:39:02;;;;;;;704.92;268.15;;;;;;;-0.17;91.14;102537.38;4965077;28;20086;-76
2023/03/03 02:41:38;;;;;;;649.38;267.88;;;;;;;-0.20;90.99;102543.81;4985753;28;20046;-76
2023/03/03 02:44:11;;;;;;;348.92;234.52;;;;;;;-0.22;90.97;102540.47;4969228;28;20037;-76
2023/03/03 02:46:42;;;;;;;609.20;241.38;;;;;;;-0.20;90.97;102540.31;4968522;28;20096;-76
2023/03/03 02:49:09;;;;;;;314.92;228.27;;;;;;;-0.17;91.07;102534.75;4954969;28;20481;-77
2023/03/03 02:51:36;;;;;;;360.38;231.48;;;;;;;-0.23;90.97;102536.19;5000307;28;20038;-77
2023/03/03 02:54:02;;;;;;;608.38;234.38;;;;;;;-0.16;91.10;102529.31;4970691;28;20030;-79
2023/03/03 02:56:30;;;;;;;437.55;245.35;;;;;;;-0.17;90.94;102538.22;4954146;28;20038;-77
2023/03/03 02:58:56;;;;;;;372.67;235.48;;;;;;;-0.18;90.61;102535.75;4985782;28;20035;-76
2023/03/03 03:01:22;;;;;;;499.33;240.95;;;;;;;-0.23;90.62;102528.28;4973494;28;20528;-77
2023/03/03 03:03:50;;;;;;;289.98;224.18;;;;;;;-0.23;91.05;102538.00;4974164;28;20070;-76
2023/03/03 03:06:19;;;;;;;385.67;221.52;;;;;;;-0.12;90.99;102535.13;4957831;28;20042;-77
2023/03/03 03:08:45;;;;;;;412.58;235.32;;;;;;;-0.18;90.67;102533.09;4990409;28;20448;-78
2023/03/03 03:11:10;;;;;;;248.33;219.43;;;;;;;-0.19;90.71;102542.81;4989114;28;20039;-77
2023/03/03 03:13:37;;;;;;;407.05;246.13;;;;;;;-0.25;90.63;102553.97;4972705;28;20151;-77
2023/03/03 03:16:04;;;;;;;338.20;261.13;;;;;;;-0.33;90.54;102554.72;4958061;28;20125;-77
2023/03/03 03:18:30;;;;;;;328.93;227.90;;;;;;;-0.29;90.96;102549.97;4974189;28;20093;-78
2023/03/03 03:20:57;;;;;;;482.60;291.37;;;;;;;-0.33;90.58;102549.47;4963110;28;20101;-77
2023/03/03 03:23:22;;;;;;;594.55;467.15;;;;;;;-0.37;90.48;102540.22;4969176;28;20039;-77
2023/03/03 03:25:48;;;;;;;536.03;239.13;;;;;;;-0.32;90.60;102551.13;4988476;28;20035;-77
2023/03/03 03:28:22;;;;;;;479.97;278.97;;;;;;;-0.49;90.57;102544.06;4959015;28;20043;-78
2023/03/03 03:30:50;;;;;;;381.77;273.13;;;;;;;-0.45;90.40;102545.41;4990430;28;20041;-77
2023/03/03 03:33:15;;;;;;;391.73;269.37;;;;;;;-0.47;91.08;102552.66;4980251;28;20105;-78
2023/03/03 03:35:44;;;;;;;361.10;240.87;;;;;;;-0.42;90.86;102553.00;4963727;28;20453;-78
2023/03/03 03:38:12;;;;;;;454.70;286.60;;;;;;;-0.42;90.90;102554.81;4987166;28;20484;-78
2023/03/03 03:40:38;;;;;;;556.23;243.37;;;;;;;-0.38;90.89;102551.72;4975263;28;20540;-78
2023/03/03 03:43:04;;;;;;;413.83;333.27;;;;;;;-0.37;90.69;102540.22;4994098;28;20038;-77
2023/03/03 03:45:29;;;;;;;612.17;324.47;;;;;;;-0.39;90.94;102550.06;4974641;28;20049;-77
2023/03/03 03:47:55;;;;;;;476.17;375.13;;;;;;;-0.40;90.65;102548.44;4974493;28;20042;-78
2023/03/03 03:50:22;;;;;;;546.97;261.90;;;;;;;-0.26;91.04;102552.31;4961543;28;20039;-78
2023/03/03 03:52:47;;;;;;;397.57;227.27;;;;;;;-0.29;90.67;102550.78;4996145;28;20489;-77
2023/03/03 03:55:13;;;;;;;441.03;289.00;;;;;;;-0.40;90.94;102544.97;4998679;28;20193;-78
2023/03/03 03:57:41;;;;;;;455.57;220.20;;;;;;;-0.41;90.71;102545.91;4984301;28;20038;-78
2023/03/03 04:00:08;;;;;;;382.30;240.03;;;;;;;-0.40;90.76;102543.16;4959347;28;20039;-77
2023/03/03 04:02:39;;;;;;;454.58;246.73;;;;;;;-0.47;90.85;102541.31;4976597;28;20041;-77
2023/03/03 04:05:06;;;;;;;506.63;267.30;;;;;;;-0.45;91.08;102534.88;4960260;28;20693;-77
2023/03/03 04:07:33;;;;;;;519.63;235.20;;;;;;;-0.45;90.77;102537.53;4973297;28;20038;-77
2023/03/03 04:09:59;;;;;;;386.30;234.93;;;;;;;-0.47;90.95;102531.59;4960403;28;20092;-77
2023/03/03 04:12:24;;;;;;;454.90;259.30;;;;;;;-0.52;91.13;102531.22;4973000;28;20457;-78
2023/03/03 04:14:50;;;;;;;424.33;250.13;;;;;;;-0.41;91.35;102525.69;4973195;28;20505;-76
2023/03/03 04:17:18;;;;;;;336.00;245.03;;;;;;;-0.47;90.88;102526.34;4974197;28;20417;-76
2023/03/03 04:19:44;;;;;;;309.23;249.93;;;;;;;-0.47;91.09;102525.50;4977929;28;20065;-77
2023/03/03 04:22:12;;;;;;;440.77;239.77;;;;;;;-0.41;91.00;102522.22;4974955;28;20482;-77
2023/03/03 04:24:39;;;;;;;302.17;225.33;;;;;;;-0.50;91.08;102531.88;4963204;28;20362;-77
2023/03/03 04:27:04;;;;;;;262.23;227.00;;;;;;;-0.53;91.17;102532.19;4974426;28;20041;-77
2023/03/03 04:29:31;;;;;;;360.50;228.80;;;;;;;-0.50;91.07;102534.50;4991538;28;20057;-78
2023/03/03 04:31:57;;;;;;;360.47;238.90;;;;;;;-0.49;91.08;102527.44;4963959;28;20121;-77
2023/03/03 04:34:23;;;;;;;388.50;223.27;;;;;;;-0.49;90.79;102533.53;4955892;28;20035;-77
2023/03/03 04:36:49;;;;;;;410.10;237.80;;;;;;;-0.62;90.73;102527.84;4953155;28;20813;-78
2023/03/03 04:39:15;;;;;;;396.43;249.33;;;;;;;-0.69;90.84;102532.88;4993118;28;20206;-77
2023/03/03 04:41:40;;;;;;;410.87;237.00;;;;;;;-0.66;90.74;102537.03;4980725;28;20042;-77
2023/03/03 04:44:06;;;;;;;395.73;255.33;;;;;;;-0.59;90.79;102528.38;4958272;28;20030;-79
2023/03/03 04:46:32;;;;;;;452.87;225.37;;;;;;;-0.69;90.70;102534.69;5008428;28;20042;-77
2023/03/03 04:48:58;;;;;;;378.27;232.87;;;;;;;-0.82;90.95;102522.72;4958788;28;20118;-77
2023/03/03 04:51:25;;;;;;;373.67;228.53;;;;;;;-0.77;90.81;102524.09;4960306;28;20046;-78
2023/03/03 04:53:51;;;;;;;319.02;240.00;;;;;;;-0.81;90.86;102520.94;4975735;28;20046;-77
2023/03/03 04:56:16;;;;;;;296.80;223.75;;;;;;;-0.77;91.25;102530.19;4956623;28;20107;-77
2023/03/03 04:58:42;;;;;;;458.00;240.80;;;;;;;-0.74;90.98;102526.44;4990823;28;20034;-79
2023/03/03 05:01:12;;;;;;;320.90;229.57;;;;;;;-0.68;90.75;102531.06;5012489;28;20030;-79
2023/03/03 05:03:38;;;;;;;443.85;215.30;;;;;;;-0.74;90.79;102534.31;5000126;28;20034;-77
2023/03/03 05:06:03;;;;;;;410.80;211.43;;;;;;;-0.80;91.00;102538.38;4974017;28;20035;-77
2023/03/03 05:08:29;;;;;;;325.17;205.90;;;;;;;-0.71;90.91;102536.66;4990820;28;20125;-77
2023/03/03 05:10:55;;;;;;;317.00;216.02;;;;;;;-0.70;91.03;102540.94;4971311;28;20488;-77
2023/03/03 05:13:21;;;;;;;278.80;213.07;;;;;;;-0.73;90.89;102542.06;4959531;28;20062;-76
2023/03/03 05:15:51;;;;;;;280.35;225.77;;;;;;;-0.73;90.87;102533.34;4989701;28;20045;-77
2023/03/03 05:18:24;;;;;;;249.10;219.68;;;;;;;-0.70;90.93;102543.56;4957015;28;20031;-78
2023/03/03 05:20:51;;;;;;;372.13;195.05;;;;;;;-0.72;91.09;102540.25;4984900;28;20070;-76
2023/03/03 05:23:18;;;;;;;261.05;225.05;;;;;;;-0.70;90.94;102546.19;4973658;28;20379;-77
2023/03/03 05:25:46;;;;;;;310.63;219.52;;;;;;;-0.65;91.15;102542.13;4975107;28;20121;-78
2023/03/03 05:28:11;;;;;;;248.80;221.90;;;;;;;-0.74;90.97;102542.22;4974213;28;20439;-77
2023/03/03 05:30:37;;;;;;;241.15;215.88;;;;;;;-0.70;90.72;102535.66;4971445;28;20045;-77
2023/03/03 05:33:04;;;;;;;322.48;212.80;;;;;;;-0.64;90.92;102535.06;4962080;28;20101;-77
2023/03/03 05:35:30;;;;;;;318.20;216.63;;;;;;;-0.68;90.98;102541.59;4990742;28;20066;-76
2023/03/03 05:37:57;;;;;;;230.45;205.57;;;;;;;-0.74;90.71;102540.41;4962049;28;20062;-78
2023/03/03 05:40:24;;;;;;;224.23;202.32;;;;;;;-0.74;90.89;102539.59;4977157;28;20150;-76
2023/03/03 05:42:50;;;;;;;232.93;208.32;;;;;;;-0.71;90.90;102539.28;5006946;28;20034;-77
2023/03/03 05:45:19;;;;;;;230.82;208.60;;;;;;;-0.68;91.15;102541.59;4985849;28;20026;-77
2023/03/03 05:47:45;;;;;;;315.25;215.63;;;;;;;-0.62;91.00;102548.88;4973277;28;20045;-76
2023/03/03 05:50:11;;;;;;;228.00;206.45;;;;;;;-0.66;91.00;102552.81;4976054;28;20042;-76
2023/03/03 05:52:37;;;;;;;246.02;209.15;;;;;;;-0.58;91.10;102545.81;4993248;28;20057;-78
2023/03/03 05:55:03;;;;;;;234.40;211.57;;;;;;;-0.66;90.80;102551.00;4972736;28;20038;-79
2023/03/03 05:57:29;;;;;;;234.13;211.10;;;;;;;-0.52;90.65;102548.81;4976240;28;20062;-78
2023/03/03 05:59:55;;;;;;;252.70;214.32;;;;;;;-0.52;90.50;102557.53;4956408;28;20100;-78
2023/03/03 06:02:20;;;;;;;255.77;214.90;;;;;;;-0.54;90.51;102546.34;4956751;28;20126;-76
2023/03/03 06:04:46;;;;;;;268.10;219.15;;;;;;;-0.60;90.61;102542.50;4976688;28;20042;-77
2023/03/03 06:07:11;;;;;;;293.20;224.30;;;;;;;-0.64;90.46;102548.22;4976683;28;20041;-77
2023/03/03 06:09:37;;;;;;;302.63;228.45;;;;;;;-0.69;90.50;102548.66;4970569;28;20038;-76
2023/03/03 06:12:03;;;;;;;316.85;222.70;;;;;;;-0.69;90.67;102546.03;4955494;28;20055;-78
2023/03/03 06:14:29;;;;;;;315.55;229.18;;;;;;;-0.76;90.63;102546.78;4988583;28;20034;-78
2023/03/03 06:16:56;;;;;;;356.63;234.68;;;;;;;-0.71;90.90;102550.63;4955344;28;20034;-79
2023/03/03 06:19:22;;;;;;;337.65;234.88;;;;;;;-0.75;90.93;102553.69;4971203;28;20046;-78
2023/03/03 06:21:48;;;;;;;365.63;228.00;;;;;;;-0.68;90.79;102562.63;4999736;28;20042;-79
2023/03/03 06:24:14;;;;;;;333.15;226.68;;;;;;;-0.82;90.80;102564.81;4976104;28;20129;-77
2023/03/03 06:26:40;;;;;;;381.35;229.23;;;;;;;-0.87;90.74;102561.84;4980908;28;20034;-77
2023/03/03 06:29:06;;;;;;;447.15;239.63;;;;;;;-0.85;90.96;102570.41;4974957;28;20522;-77
2023/03/03 06:31:32;;;;;;;274.85;230.07;;;;;;;-0.85;91.05;102565.13;4970855;28;20098;-76
2023/03/03 06:33:57;;;;;;;325.08;226.85;;;;;;;-0.78;90.98;102575.88;4974031;28;20034;-76
2023/03/03 06:36:24;;;;;;;334.20;222.05;;;;;;;-0.77;90.75;102572.28;4981012;28;20026;-77
2023/03/03 06:38:50;;;;;;;387.25;230.32;;;;;;;-0.73;91.11;102573.63;4976178;28;20030;-76
2023/03/03 06:41:16;;;;;;;299.38;226.90;;;;;;;-0.65;91.04;102586.03;4947882;28;20030;-78
2023/03/03 06:43:41;;;;;;;253.02;225.32;;;;;;;-0.75;91.19;102585.28;4980757;28;20419;-76
2023/03/03 06:46:07;;;;;;;248.30;218.77;;;;;;;-0.62;90.85;102569.94;4946677;28;20081;-77
2023/03/03 06:48:33;;;;;;;335.35;224.50;;;;;;;-0.52;90.75;102585.66;4976518;28;20042;-79
2023/03/03 06:51:02;;;;;;;332.33;225.35;;;;;;;-0.60;90.83;102581.97;4975455;28;20106;-77
2023/03/03 06:53:31;;;;;;;318.60;229.68;;;;;;;-0.67;90.57;102580.09;4989308;28;20039;-78
2023/03/03 06:55:57;;;;;;;312.20;226.68;;;;;;;-0.62;90.61;102589.19;4976146;28;20050;-78
2023/03/03 06:58:26;;;;;;;312.52;234.85;;;;;;;-0.71;90.47;102576.13;4976389;28;20145;-77
2023/03/03 07:01:00;;;;;;;308.85;238.68;;;;;;;-0.63;90.68;102576.19;4975095;28;20405;-77
2023/03/03 07:03:33;;;;;;;308.23;235.85;;;;;;;-0.60;90.63;102581.16;4992153;28;20201;-77
2023/03/03 07:05:59;;;;;;;296.30;228.82;;;;;;;-0.64;90.54;102591.16;4960302;28;20121;-76
2023/03/03 07:08:30;;;;;;;263.23;225.20;;;;;;;-0.56;90.65;102585.94;4974123;28;20653;-78
2023/03/03 07:11:05;;;;;;;284.75;229.85;;;;;;;-0.42;90.60;102587.22;4990570;28;20030;-76
2023/03/03 07:13:31;;;;;;;252.60;223.57;;;;;;;-0.41;90.65;102591.50;4958952;28;20045;-78
2023/03/03 07:16:00;;;;;;;250.93;223.60;;;;;;;-0.39;90.49;102597.47;4974838;28;20048;-77
2023/03/03 07:18:39;;;;;;;305.92;224.10;;;;;;;-0.26;90.48;102612.88;4960286;28;20142;-78
2023/03/03 07:21:21;;;;;;;249.73;222.40;;;;;;;-0.17;90.71;102621.66;4974171;28;20033;-77
2023/03/03 07:23:49;;;;;;;250.53;222.93;;;;;;;-0.18;90.34;102618.19;4994389;28;20113;-77
2023/03/03 07:26:27;;;;;;;241.55;216.77;;;;;;;-0.15;89.83;102614.41;4979542;28;20280;-78
2023/03/03 07:29:10;;;;;;;245.32;220.40;;;;;;;-0.10;89.83;102627.97;4978040;28;20042;-78
2023/03/03 07:31:38;;;;;;;236.43;213.48;;;;;;;-0.18;89.50;102617.38;4968275;28;20391;-77
2023/03/03 07:34:19;;;;;;;241.68;217.70;;;;;;;-0.09;89.52;102629.63;4972620;28;20031;-77
2023/03/03 07:36:45;;;;;;;243.48;220.27;;;;;;;0.05;89.69;102617.69;4988517;28;20034;-77
2023/03/03 07:39:29;;;;;;;232.98;212.07;;;;;;;0.00;88.66;102623.44;4976386;28;20041;-77
2023/03/03 07:42:13;;;;;;;225.65;205.40;;;;;;;0.23;88.94;102619.31;4976613;28;21487;-78
2023/03/03 07:44:39;;;;;;;224.52;204.27;;;;;;;0.22;88.51;102622.94;4974240;28;20090;-78
2023/03/03 07:47:19;;;;;;;227.40;207.20;;;;;;;0.32;88.37;102627.25;4979561;28;20038;-77
2023/03/03 07:49:47;;;;;;;226.18;205.80;;;;;;;0.38;88.21;102629.28;4968699;28;20117;-76
2023/03/03 07:52:23;;;;;;;230.00;208.90;;;;;;;0.31;88.17;102630.88;4979168;28;20420;-79
2023/03/03 07:54:49;;;;;;;233.45;211.43;;;;;;;0.39;88.08;102636.19;4995667;28;20117;-78
2023/03/03 07:57:21;;;;;;;228.43;207.95;;;;;;;0.28;88.10;102631.22;4959163;28;20130;-76
2023/03/03 08:00:15;;;;;;;180.10;160.68;;;;;;;0.52;87.95;102623.41;4987228;28;20042;-77
2023/03/03 08:02:45;;;;;;;226.77;206.48;;;;;;;0.58;87.62;102622.78;4954485;28;20043;-77
2023/03/03 08:05:26;;;;;;;227.77;207.00;;;;;;;0.49;87.34;102608.75;4977340;28;20114;-77
2023/03/03 08:07:52;;;;;;;232.68;210.95;;;;;;;0.65;87.45;102617.72;4978264;28;20097;-76
2023/03/03 08:10:33;;;;;;;227.40;207.05;;;;;;;0.56;86.69;102616.84;4986544;28;20054;-78
2023/03/03 08:13:12;;;;;;;228.82;208.10;;;;;;;0.62;87.66;102618.88;4972737;28;20149;-77
2023/03/03 08:15:37;;;;;;;236.80;214.40;;;;;;;0.52;87.36;102618.16;4973286;28;20031;-77
2023/03/03 08:18:16;;;;;;;235.23;212.93;;;;;;;0.64;87.48;102608.97;4973364;28;20110;-78
2023/03/03 08:20:45;;;;;;;241.55;217.65;;;;;;;0.68;87.55;102618.22;4970742;28;20070;-77
2023/03/03 08:23:11;;;;;;;242.65;220.07;;;;;;;0.71;87.16;102617.09;4986233;28;20548;-76
2023/03/03 08:25:38;;;;;;;241.43;216.15;;;;;;;0.53;87.33;102614.53;4987272;28;20026;-77
2023/03/03 08:28:04;;;;;;;248.95;225.30;;;;;;;0.46;87.64;102618.78;4956400;28;20120;-78
2023/03/03 08:30:30;;;;;;;246.00;220.45;;;;;;;0.44;88.05;102620.75;4974698;28;20528;-77
2023/03/03 08:32:57;;;;;;;249.70;223.00;;;;;;;0.45;88.07;102625.03;4976583;28;20045;-77
2023/03/03 08:35:22;;;;;;;250.82;224.80;;;;;;;0.41;88.13;102621.06;4958205;28;20034;-78
2023/03/03 08:37:48;;;;;;;250.48;223.98;;;;;;;0.44;87.99;102618.94;4957205;28;20366;-78
2023/03/03 08:40:13;;;;;;;249.60;222.95;;;;;;;0.40;88.28;102612.31;4974467;28;20035;-77
2023/03/03 08:42:39;;;;;;;257.10;229.25;;;;;;;0.37;88.29;102610.00;4955801;28;20046;-77
2023/03/03 08:45:05;;;;;;;263.30;226.45;;;;;;;0.34;88.50;102605.06;4972225;28;20046;-76
2023/03/03 08:47:31;;;;;;;261.90;224.25;;;;;;;0.49;88.29;102610.56;4971788;28;20053;-77
2023/03/03 08:49:56;;;;;;;261.55;233.02;;;;;;;0.44;88.31;102600.47;4975243;28;20073;-77
2023/03/03 08:52:22;;;;;;;254.55;228.60;;;;;;;0.50;88.12;102609.56;4978608;28;20047;-77
2023/03/03 08:54:47;;;;;;;248.07;221.52;;;;;;;0.71;87.89;102604.72;4975816;28;20031;-77
2023/03/03 08:57:13;;;;;;;253.68;226.63;;;;;;;0.49;87.71;102603.47;4972554;28;20041;-77
2023/03/03 08:59:38;;;;;;;246.75;222.98;;;;;;;0.69;87.63;102605.88;4954951;28;20410;-78
2023/03/03 09:02:05;;;;;;;241.13;216.93;;;;;;;0.73;87.44;102601.91;4974702;28;20149;-77
2023/03/03 09:04:31;;;;;;;242.10;217.68;;;;;;;0.67;87.26;102606.00;4990257;28;20042;-77
2023/03/03 09:06:57;;;;;;;246.00;222.55;;;;;;;0.71;87.24;102612.63;4992805;28;20042;-77
2023/03/03 09:09:22;;;;;;;245.73;222.50;;;;;;;0.71;86.75;102606.53;4953608;28;20050;-77
2023/03/03 09:11:49;;;;;;;245.90;221.88;;;;;;;1.01;86.57;102607.78;4974363;28;20066;-77
2023/03/03 09:14:17;;;;;;;243.35;220.40;;;;;;;0.98;86.71;102610.75;4984764;28;20073;-77
2023/03/03 09:16:51;;;;;;;234.75;212.45;;;;;;;1.01;86.45;102618.34;4988887;28;20125;-77
2023/03/03 09:19:28;;;;;;;232.80;211.25;;;;;;;1.11;85.76;102618.22;4987788;28;20630;-76
2023/03/03 09:21:57;;;;;;;235.52;213.50;;;;;;;1.22;85.34;102621.38;4987745;28;20055;-77
2023/03/03 09:24:28;;;;;;;239.05;215.70;;;;;;;1.18;85.35;102609.47;4961691;28;20027;-77
2023/03/03 09:26:55;;;;;;;234.10;212.57;;;;;;;1.58;85.13;102627.19;4973650;28;20471;-77
2023/03/03 09:29:36;;;;;;;240.23;217.82;;;;;;;1.66;84.68;102634.31;4970432;28;20034;-77
2023/03/03 09:32:33;;;;;;;232.43;211.10;;;;;;;1.43;84.43;102630.66;5000807;28;20060;-78
2023/03/03 09:34:59;;;;;;;234.68;213.50;;;;;;;1.68;83.79;102627.03;4989708;28;20520;-77
2023/03/03 09:37:34;;;;;;;230.77;209.95;;;;;;;1.71;83.74;102625.88;4973792;28;20038;-77
2023/03/03 09:40:26;;;;;;;235.23;213.70;;;;;;;1.41;84.35;102627.34;4972627;28;20030;-77
2023/03/03 09:43:03;;;;;;;232.70;210.70;;;;;;;1.67;84.03;102625.38;4989552;28;20125;-76
2023/03/03 09:45:51;;;;;;;226.00;205.80;;;;;;;1.49;84.78;102629.97;4985044;28;20452;-76
2023/03/03 09:49:14;;;;;;;219.43;200.38;;;;;;;1.71;84.07;102639.94;4980889;28;20042;-77
2023/03/03 09:52:08;;;;;;;221.88;202.70;;;;;;;1.78;83.69;102635.63;4897540;29;20035;-78
2023/03/03 09:55:01;;;;;;;220.57;199.95;;;;;;;1.79;83.46;102639.91;4958618;28;20130;-82
2023/03/03 09:57:41;;;;;;;;;;;;;;;1.92;83.09;102650.81;4970003;28;20035;-76
2023/03/03 10:00:43;;;;;;;213.00;194.55;;;;;;;1.65;83.80;102643.22;4969579;28;20021;-76
2023/03/03 10:03:51;;;;;;;216.05;197.43;;;;;;;1.73;83.74;102645.03;4965217;28;20082;-78
2023/03/03 10:06:22;;;;;;;218.82;200.18;;;;;;;1.90;83.52;102652.81;4969027;28;20122;-77
2023/03/03 10:09:21;;;;;;;221.55;202.23;;;;;;;1.69;83.66;102641.88;4969595;28;20058;-76
2023/03/03 10:12:05;;;;;;;223.68;204.75;;;;;;;1.63;83.82;102647.84;4945363;28;20045;-77
2023/03/03 10:14:34;;;;;;;222.73;203.20;;;;;;;1.96;83.33;102650.47;4969275;28;20042;-76
2023/03/03 10:17:15;;;;;;;225.57;206.43;;;;;;;2.04;83.33;102653.13;4975612;28;20034;-75
2023/03/03 10:20:07;;;;;;;220.30;201.85;;;;;;;1.89;83.13;102651.13;4969913;28;20035;-77
2023/03/03 10:22:47;;;;;;;219.90;201.30;;;;;;;1.78;83.46;102648.00;4956157;28;20134;-77
2023/03/03 10:25:19;;;;;;;228.45;208.57;;;;;;;1.41;85.08;102635.25;4968003;28;20445;-78
2023/03/03 10:27:51;;;;;;;235.45;213.75;;;;;;;1.42;85.25;102636.91;4968616;28;20469;-79
2023/03/03 10:30:58;;;;;;;236.25;214.38;;;;;;;1.55;85.26;102631.97;4953075;28;20043;-76
2023/03/03 10:33:38;;;;;;;233.23;211.95;;;;;;;1.62;84.92;102628.50;4997766;28;20069;-76
2023/03/03 10:36:27;;;;;;;233.07;211.93;;;;;;;1.82;84.52;102634.28;4987694;28;20039;-76
2023/03/03 10:39:09;;;;;;;228.98;208.35;;;;;;;1.80;84.36;102635.47;5002991;28;20058;-76
2023/03/03 10:41:41;;;;;;;229.13;209.48;;;;;;;1.81;84.22;102642.38;4972009;28;20065;-76
2023/03/03 10:44:37;;;;;;;220.77;201.68;;;;;;;1.81;85.00;102632.66;4954613;28;20038;-76
2023/03/03 10:47:35;;;;;;;228.85;208.27;;;;;;;2.03;83.69;102625.88;4957663;28;20042;-76
2023/03/03 10:50:32;;;;;;;227.02;206.93;;;;;;;2.25;83.73;102619.06;4976558;28;20485;-78
2023/03/03 10:53:38;;;;;;;222.10;202.38;;;;;;;2.33;83.25;102621.69;4973906;28;21962;-76
2023/03/03 10:56:16;;;;;;;227.18;208.20;;;;;;;2.79;82.36;102616.59;4967672;28;20038;-77
2023/03/03 10:59:08;;;;;;;216.82;198.27;;;;;;;2.82;82.07;102610.94;4970331;28;20037;-76
2023/03/03 11:01:45;;;;;;;217.40;199.13;;;;;;;3.39;80.23;102607.16;4962898;28;20121;-76
2023/03/03 11:04:38;;;;;;;220.32;202.07;;;;;;;3.45;78.09;102601.94;4954908;28;20030;-76
2023/03/03 11:07:11;;;;;;;213.95;196.18;;;;;;;3.12;80.37;102606.66;4971051;28;20154;-76
2023/03/03 11:10:07;;;;;;;214.68;196.90;;;;;;;3.32;78.93;102604.38;4983617;28;20035;-76
2023/03/03 11:12:56;;;;;;;211.25;193.98;;;;;;;3.21;78.89;102605.59;4964025;28;20054;-76
2023/03/03 11:15:46;;;;;;;212.25;195.02;;;;;;;3.27;79.31;102610.19;4957452;28;20504;-77
2023/03/03 11:18:33;;;;;;;206.50;189.68;;;;;;;3.09;79.80;102592.94;4971430;28;20039;-78
2023/03/03 11:21:18;;;;;;;205.40;188.40;;;;;;;3.50;79.04;102589.00;4989149;28;20394;-78
2023/03/03 11:24:14;;;;;;;208.60;191.70;;;;;;;3.72;77.93;102586.50;4990877;28;20125;-78
2023/03/03 11:27:11;;;;;;;209.05;191.80;;;;;;;3.76;78.42;102582.50;4960751;28;20042;-77
2023/03/03 11:29:40;;;;;;;208.85;191.68;;;;;;;3.65;78.51;102585.56;4973907;28;20026;-77